Time;durP1;ratioP1;P1;durP2;ratioP2;P2;SDS_P1;SDS_P2;PMS_P1;PMS_P2;Temp;Humidity;BMP_temperature;BMP_pressure;BME280_temperature;BME280_humidity;BME280_pressure;Samples;Min_cycle;Max_cycle;Signal;HPM_P1;HPM_P2
2023/01/06 00:00:22;;;;;;;;;;;;;;;10.09;100.00;100573.50;4913545;29;19935;-79
2023/01/06 00:02:49;;;;;;;;;;;;;;;10.11;100.00;100566.28;4902013;29;19971;-79
2023/01/06 00:05:15;;;;;;;;;;;;;;;10.09;100.00;100566.38;4903882;29;19927;-79
2023/01/06 00:07:43;;;;;;;;;;;;;;;10.09;100.00;100563.72;4885725;29;19967;-81
2023/01/06 00:10:10;;;;;;;;;;;;;;;10.11;100.00;100561.81;4919367;29;20071;-79
2023/01/06 00:12:36;;;;;;;;;;;;;;;10.12;100.00;100552.88;4900319;29;20393;-79
2023/01/06 00:15:03;;;;;;;;;;;;;;;10.10;100.00;100551.31;4876254;29;20394;-81
2023/01/06 00:17:30;;;;;;;;;;;;;;;10.12;100.00;100541.44;4909737;29;19962;-79
2023/01/06 00:19:57;;;;;;;;;;;;;;;10.09;100.00;100547.81;4908667;29;20356;-79
2023/01/06 00:22:23;;;;;;;;;;;;;;;10.10;100.00;100544.22;4872058;29;19939;-79
2023/01/06 00:24:50;;;;;;;;;;;;;;;10.10;100.00;100546.88;4904457;29;20271;-79
2023/01/06 00:27:16;;;;;;;;;;;;;;;10.10;100.00;100540.69;4911451;29;19934;-79
2023/01/06 00:29:43;;;;;;;;;;;;;;;10.11;100.00;100537.09;4873185;29;19934;-79
2023/01/06 00:32:09;;;;;;;;;;;;;;;10.13;100.00;100535.19;4917118;29;19931;-80
2023/01/06 00:34:36;;;;;;;;;;;;;;;10.12;100.00;100536.13;4876886;29;19934;-79
2023/01/06 00:37:03;;;;;;;;;;;;;;;10.10;100.00;100541.56;4891715;29;19935;-79
2023/01/06 00:39:29;;;;;;;;;;;;;;;10.13;100.00;100540.47;4909517;29;19950;-79
2023/01/06 00:42:02;;;;;;;;;;;;;;;10.11;100.00;100535.28;4864078;29;19970;-79
2023/01/06 00:44:29;;;;;;;;;;;;;;;10.14;100.00;100535.03;4869086;29;19929;-79
2023/01/06 00:46:56;;;;;;;;;;;;;;;10.15;100.00;100528.78;4902958;29;20339;-79
2023/01/06 00:49:22;;;;;;;;;;;;;;;10.17;100.00;100528.66;4903532;29;20283;-79
2023/01/06 00:51:49;;;;;;;;;;;;;;;10.16;100.00;100530.47;4877432;29;19999;-80
2023/01/06 00:54:15;;;;;;;;;;;;;;;10.12;100.00;100536.13;4924764;29;19939;-79
2023/01/06 00:56:43;;;;;;;;;;;;;;;10.11;100.00;100531.78;4913821;29;19923;-79
2023/01/06 00:59:11;;;;;;;;;;;;;;;10.15;100.00;100538.53;4903085;29;20381;-80
2023/01/06 01:01:38;;;;;;;;;;;;;;;10.15;100.00;100538.53;4899354;29;19930;-79
2023/01/06 01:04:05;;;;;;;;;;;;;;;10.11;100.00;100522.00;4892046;29;19958;-79
2023/01/06 01:06:32;;;;;;;;;;;;;;;10.14;100.00;100529.72;4917828;29;19923;-79
2023/01/06 01:08:58;;;;;;;;;;;;;;;10.09;100.00;100525.75;4909517;29;20349;-79
2023/01/06 01:14:12;;;;;;;;;;;;;;;10.10;100.00;100522.97;4848693;29;19923;-80
2023/01/06 01:16:39;;;;;;;;;;;;;;;10.10;100.00;100517.69;4904270;29;20034;-80
2023/01/06 01:19:06;;;;;;;;;;;;;;;10.10;100.00;100519.47;4880159;29;19923;-79
2023/01/06 01:21:32;;;;;;;;;;;;;;;10.07;100.00;100511.72;4906606;29;19927;-79
2023/01/06 01:23:59;;;;;;;;;;;;;;;10.09;100.00;100510.66;4900517;29;20214;-79
2023/01/06 01:26:25;;;;;;;;;;;;;;;10.09;100.00;100513.31;4905985;29;19930;-80
2023/01/06 01:28:52;;;;;;;;;;;;;;;10.09;100.00;100504.50;4915646;29;20391;-81
2023/01/06 01:31:19;;;;;;;;;;;;;;;10.08;100.00;100510.78;4890588;29;20413;-79
2023/01/06 01:33:46;;;;;;;;;;;;;;;10.11;100.00;100508.75;4891302;29;19954;-80
2023/01/06 01:36:14;;;;;;;;;;;;;;;10.11;100.00;100511.41;4887472;29;19923;-79
2023/01/06 01:38:41;;;;;;;;;;;;;;;10.09;100.00;100502.69;4886682;29;20469;-79
2023/01/06 01:41:08;;;;;;;;;;;;;;;10.09;100.00;100507.16;4917113;29;19963;-79
2023/01/06 01:43:44;;;;;;;;;;;;;;;10.09;100.00;100508.00;4871486;29;19927;-80
2023/01/06 01:46:11;;;;;;;;;;;;;;;10.09;100.00;100508.00;4889695;29;19970;-79
2023/01/06 01:48:37;;;;;;;;;;;;;;;10.08;100.00;100503.66;4889782;29;20402;-80
2023/01/06 01:51:04;;;;;;;;;;;;;;;10.08;100.00;100514.28;4905730;29;19990;-79
2023/01/06 01:53:42;;;;;;;;;;;;;;;10.08;100.00;100503.66;4903571;29;20363;-79
2023/01/06 01:56:10;;;;;;;;;;;;;;;10.07;100.00;100507.28;4867112;29;19990;-79
2023/01/06 01:59:03;;;;;;;;;;;;;;;10.08;100.00;100503.66;4861794;29;19934;-80
2023/01/06 02:01:29;;;;;;;;;;;;;;;10.08;100.00;100508.97;4848287;29;20462;-79
2023/01/06 02:03:56;;;;;;;;;;;;;;;10.10;100.00;100503.53;4860444;29;19978;-79
2023/01/06 02:06:23;;;;;;;;;;;;;;;10.12;100.00;100497.16;4875987;29;20363;-79
2023/01/06 02:09:13;;;;;;;;;;;;;;;10.13;100.00;100492.72;4907104;29;19927;-79
2023/01/06 02:11:42;;;;;;;;;;;;;;;10.12;100.00;100494.50;4889654;29;19923;-79
2023/01/06 02:14:13;;;;;;;;;;;;;;;10.13;100.00;100493.56;4878474;29;19931;-79
2023/01/06 02:16:53;;;;;;;;;;;;;;;10.11;100.00;100494.63;4889427;29;19930;-79
2023/01/06 02:19:22;;;;;;;;;;;;;;;10.10;100.00;100491.13;4900142;29;19931;-80
2023/01/06 02:22:01;;;;;;;;;;;;;;;10.09;100.00;100492.09;4906936;29;19938;-81
2023/01/06 02:24:28;;;;;;;;;;;;;;;10.08;100.00;100501.03;4904862;29;19923;-79
2023/01/06 02:27:13;;;;;;;;;;;;;;;10.11;100.00;100498.13;4903618;29;19966;-79
2023/01/06 02:29:40;;;;;;;;;;;;;;;10.09;100.00;100501.84;4873959;29;19934;-79
2023/01/06 02:32:19;;;;;;;;;;;;;;;10.05;100.00;100492.44;4907506;29;19930;-79
2023/01/06 02:34:46;;;;;;;;;;;;;;;10.10;100.00;100491.13;4864785;29;20342;-79
2023/01/06 02:37:12;;;;;;;;;;;;;;;10.09;100.00;100494.75;4899197;29;19924;-79
2023/01/06 02:39:54;;;;;;;;;;;;;;;10.10;100.00;100495.56;4903606;29;20268;-79
2023/01/06 02:42:24;;;;;;;;;;;;;;;10.06;100.00;100492.31;4877423;29;19961;-79
2023/01/06 02:44:54;;;;;;;;;;;;;;;10.12;100.00;100496.31;4890877;29;20014;-79
2023/01/06 02:47:20;;;;;;;;;;;;;;;10.11;100.00;100497.28;4899304;29;19978;-79
2023/01/06 02:49:50;;;;;;;;;;;;;;;10.11;100.00;100491.97;4889965;29;19931;-79
2023/01/06 02:52:26;;;;;;;;;;;;;;;10.15;100.00;100494.28;4901888;29;19927;-79
2023/01/06 02:55:04;;;;;;;;;;;;;;;10.14;100.00;100495.22;4844930;29;19923;-79
2023/01/06 02:57:49;;;;;;;;;;;;;;;10.16;100.00;100492.47;4855539;29;19958;-79
2023/01/06 03:00:21;;;;;;;;;;;;;;;10.18;100.00;100482.59;4895742;29;20323;-79
2023/01/06 03:02:49;;;;;;;;;;;;;;;10.18;100.00;100480.78;4910339;29;19922;-79
2023/01/06 03:05:16;;;;;;;;;;;;;;;10.21;100.00;100482.34;4918940;29;20379;-80
2023/01/06 03:07:43;;;;;;;;;;;;;;;10.20;100.00;100478.00;4861448;29;19994;-79
2023/01/06 03:10:11;;;;;;;;;;;;;;;10.20;100.00;100481.50;4916661;29;19927;-79
2023/01/06 03:12:44;;;;;;;;;;;;;;;10.20;100.00;100476.22;4857828;29;20294;-79
2023/01/06 03:15:11;;;;;;;;;;;;;;;10.18;100.00;100479.94;4901240;29;19967;-80
2023/01/06 03:17:38;;;;;;;;;;;;;;;10.18;100.00;100477.28;4875302;29;19930;-79
2023/01/06 03:20:05;;;;;;;;;;;;;;;10.15;100.00;100481.03;4877794;29;19927;-79
2023/01/06 03:22:33;;;;;;;;;;;;;;;10.14;100.00;100475.81;4887282;29;20105;-79
2023/01/06 03:25:00;;;;;;;;;;;;;;;10.16;100.00;100474.75;4898344;29;20371;-80
2023/01/06 03:27:26;;;;;;;;;;;;;;;10.14;100.00;100475.81;4901912;29;19954;-79
2023/01/06 03:29:55;;;;;;;;;;;;;;;10.16;100.00;100471.25;4901557;29;19935;-79
2023/01/06 03:32:27;;;;;;;;;;;;;;;10.17;100.00;100471.09;4886794;29;19923;-79
2023/01/06 03:35:01;;;;;;;;;;;;;;;10.15;100.00;100462.44;4890803;29;20026;-79
2023/01/06 03:37:50;;;;;;;;;;;;;;;10.17;100.00;100463.16;4869506;29;19931;-82
2023/01/06 03:40:20;;;;;;;;;;;;;;;10.19;100.00;100461.22;4856305;29;19930;-79
2023/01/06 03:45:39;;;;;;;;;;;;;;;10.21;100.00;100450.50;4874588;29;19978;-79
2023/01/06 03:48:08;;;;;;;;;;;;;;;10.22;100.00;100454.84;4915124;29;19986;-79
2023/01/06 03:50:39;;;;;;;;;;;;;;;10.24;100.00;100452.06;4873809;29;19978;-79
2023/01/06 03:53:13;;;;;;;;;;;;;;;10.24;100.00;100455.56;4883131;29;19962;-79
2023/01/06 03:55:40;;;;;;;;;;;;;;;10.25;100.00;100454.59;4875120;29;19923;-79
2023/01/06 03:58:08;;;;;;;;;;;;;;;10.25;100.00;100451.09;4903475;29;19927;-80
2023/01/06 04:00:36;;;;;;;;;;;;;;;10.24;100.00;100452.06;4894290;29;20395;-80
2023/01/06 04:03:08;;;;;;;;;;;;;;;10.27;100.00;100451.84;4900554;29;19923;-80
2023/01/06 04:05:36;;;;;;;;;;;;;;;10.25;100.00;100448.44;4918950;29;19930;-80
2023/01/06 04:08:04;;;;;;;;;;;;;;;10.27;100.00;100451.84;4919922;29;19958;-79
2023/01/06 04:10:31;;;;;;;;;;;;;;;10.28;100.00;100449.09;4906907;29;19978;-79
2023/01/06 04:12:58;;;;;;;;;;;;;;;10.27;100.00;100443.88;4898998;29;19958;-80
2023/01/06 04:15:28;;;;;;;;;;;;;;;10.29;100.00;100449.94;4880979;29;19974;-79
2023/01/06 04:17:57;;;;;;;;;;;;;;;10.32;100.00;100452.34;4906495;29;19924;-80
2023/01/06 04:20:25;;;;;;;;;;;;;;;10.32;100.00;100447.88;4887619;29;19923;-80
2023/01/06 04:22:58;;;;;;;;;;;;;;;10.35;100.00;100452.94;4871171;29;19955;-79
2023/01/06 04:25:29;;;;;;;;;;;;;;;10.36;100.00;100451.16;4917443;29;20390;-79
2023/01/06 04:27:56;;;;;;;;;;;;;;;10.36;100.00;100445.84;4862184;29;19975;-78
2023/01/06 04:30:22;;;;;;;;;;;;;;;10.36;100.00;100437.88;4884168;29;19927;-79
2023/01/06 04:32:49;;;;;;;;;;;;;;;10.35;100.00;100434.38;4868824;29;19962;-79
2023/01/06 04:35:16;;;;;;;;;;;;;;;10.36;100.00;100432.59;4880616;29;20375;-79
2023/01/06 04:37:43;;;;;;;;;;;;;;;10.36;100.00;100427.28;4891635;29;20283;-79
2023/01/06 04:40:09;;;;;;;;;;;;;;;10.36;100.00;100424.63;4878743;29;20061;-79
2023/01/06 04:45:21;;;;;;;;;;;;;;;10.36;100.00;100417.50;4840890;29;19933;-78
2023/01/06 04:47:48;;;;;;;;;;;;;;;10.37;100.00;100419.16;4899069;29;19923;-79
2023/01/06 04:50:15;;;;;;;;;;;;;;;10.37;100.00;100419.16;4915784;29;20390;-79
2023/01/06 04:52:41;;;;;;;;;;;;;;;10.38;100.00;100420.00;4895631;29;19931;-79
2023/01/06 04:55:08;;;;;;;;;;;;;;;10.38;100.00;100415.56;4913070;29;19927;-79
2023/01/06 04:57:35;;;;;;;;;;;;;;;10.35;100.00;100413.13;4918646;29;19931;-79
2023/01/06 05:00:02;;;;;;;;;;;;;;;10.35;100.00;100413.13;4920702;29;19979;-79
2023/01/06 05:02:28;;;;;;;;;;;;;;;10.36;100.00;100414.00;4902121;29;20375;-79
2023/01/06 05:04:55;;;;;;;;;;;;;;;10.35;100.00;100409.63;4903077;29;19965;-79
2023/01/06 05:07:21;;;;;;;;;;;;;;;10.32;100.00;100407.22;4897026;29;19931;-79
2023/01/06 05:09:48;;;;;;;;;;;;;;;10.34;100.00;100406.13;4916829;29;19927;-79
2023/01/06 05:12:14;;;;;;;;;;;;;;;10.34;100.00;100400.00;4892882;29;19923;-78
2023/01/06 05:14:41;;;;;;;;;;;;;;;10.35;100.00;100399.03;4898971;29;19992;-80
2023/01/06 05:17:08;;;;;;;;;;;;;;;10.35;100.00;100405.16;4873605;29;19927;-79
2023/01/06 05:19:34;;;;;;;;;;;;;;;10.36;100.00;100403.38;4909271;29;19923;-79
2023/01/06 05:22:01;;;;;;;;;;;;;;;10.35;100.00;100397.19;4905106;29;19927;-79
2023/01/06 05:24:27;;;;;;;;;;;;;;;10.34;100.00;100403.50;4890889;29;19926;-79
2023/01/06 05:26:54;;;;;;;;;;;;;;;10.36;100.00;100390.09;4885404;29;20382;-80
2023/01/06 05:29:20;;;;;;;;;;;;;;;10.37;100.00;100397.09;4902652;29;20252;-79
2023/01/06 05:31:47;;;;;;;;;;;;;;;10.38;100.00;100396.97;4905243;29;20018;-80
2023/01/06 05:34:13;;;;;;;;;;;;;;;10.38;100.00;100393.47;4904191;29;20018;-79
2023/01/06 05:36:40;;;;;;;;;;;;;;;10.39;100.00;100397.81;4892364;29;19934;-79
2023/01/06 05:39:07;;;;;;;;;;;;;;;10.40;100.00;100397.69;4899346;29;19929;-79
2023/01/06 05:41:33;;;;;;;;;;;;;;;10.42;100.00;100397.56;4893523;29;19927;-79
2023/01/06 05:44:00;;;;;;;;;;;;;;;10.42;100.00;100401.06;4921316;29;19979;-79
2023/01/06 05:46:26;;;;;;;;;;;;;;;10.42;100.00;100403.72;4904874;29;20409;-79
2023/01/06 05:48:53;;;;;;;;;;;;;;;10.43;100.00;100401.91;4902375;29;19970;-80
2023/01/06 05:51:19;;;;;;;;;;;;;;;10.43;100.00;100394.81;4904030;29;20331;-79
2023/01/06 05:53:46;;;;;;;;;;;;;;;10.45;100.00;100399.97;4896586;29;20555;-81
2023/01/06 05:56:14;;;;;;;;;;;;;;;10.45;100.00;100415.06;4904433;29;19923;-79
2023/01/06 05:58:43;;;;;;;;;;;;;;;10.45;100.00;100415.06;4853887;29;19934;-80
2023/01/06 06:01:18;;;;;;;;;;;;;;;10.46;100.00;100414.09;4876101;29;19951;-79
2023/01/06 06:03:45;;;;;;;;;;;;;;;10.45;100.00;100415.06;4904556;29;19927;-79
2023/01/06 06:06:11;;;;;;;;;;;;;;;10.45;100.00;100417.72;4903232;29;19923;-79
2023/01/06 06:08:38;;;;;;;;;;;;;;;10.46;100.00;100417.63;4898726;29;20283;-79
2023/01/06 06:11:05;;;;;;;;;;;;;;;10.44;100.00;100416.88;4903547;29;19923;-79
2023/01/06 06:13:32;;;;;;;;;;;;;;;10.43;100.00;100418.72;4888000;29;19938;-79
2023/01/06 06:16:02;;;;;;;;;;;;;;;10.45;100.00;100418.56;4892017;29;19923;-79
2023/01/06 06:18:28;;;;;;;;;;;;;;;10.46;100.00;100409.66;4864488;29;19926;-79
2023/01/06 06:21:01;;;;;;;;;;;;;;;10.46;100.00;100420.28;4916821;29;20347;-79
2023/01/06 06:23:28;;;;;;;;;;;;;;;10.46;100.00;100420.28;4889752;29;19927;-79
2023/01/06 06:25:55;;;;;;;;;;;;;;;10.47;100.00;100416.66;4865288;29;20015;-79
2023/01/06 06:28:22;;;;;;;;;;;;;;;10.49;100.00;100421.84;4895668;29;19931;-80
2023/01/06 06:30:48;;;;;;;;;;;;;;;10.50;100.00;100418.22;4916440;29;19926;-79
2023/01/06 06:33:15;;;;;;;;;;;;;;;10.50;100.00;100428.84;4904479;29;19930;-79
2023/01/06 06:35:41;;;;;;;;;;;;;;;10.50;100.00;100437.63;4915213;29;21354;-81
2023/01/06 06:38:08;;;;;;;;;;;;;;;10.48;100.00;100428.97;4914506;29;19946;-79
2023/01/06 06:40:34;;;;;;;;;;;;;;;10.47;100.00;100437.88;4899526;29;19923;-79
2023/01/06 06:43:01;;;;;;;;;;;;;;;10.50;100.00;100431.50;4879489;29;19927;-79
2023/01/06 06:45:28;;;;;;;;;;;;;;;10.50;100.00;100431.50;4892096;29;19922;-79
2023/01/06 06:47:54;;;;;;;;;;;;;;;10.49;100.00;100435.97;4885578;29;19971;-80
2023/01/06 06:50:21;;;;;;;;;;;;;;;10.49;100.00;100443.94;4885712;29;20001;-79
2023/01/06 06:52:47;;;;;;;;;;;;;;;10.50;100.00;100440.28;4902344;29;19923;-79
2023/01/06 06:55:14;;;;;;;;;;;;;;;10.50;100.00;100437.63;4905367;29;19931;-79
2023/01/06 06:57:40;;;;;;;;;;;;;;;10.51;100.00;100449.97;4904632;29;20450;-79
2023/01/06 07:00:07;;;;;;;;;;;;;;;10.51;100.00;100439.34;4864453;29;20026;-79
2023/01/06 07:02:34;;;;;;;;;;;;;;;10.51;100.00;100449.13;4891886;29;19934;-79
2023/01/06 07:05:01;;;;;;;;;;;;;;;10.51;100.00;100449.97;4889497;29;20375;-79
2023/01/06 07:07:28;;;;;;;;;;;;;;;10.51;100.00;100452.63;4893459;29;19999;-78
2023/01/06 07:09:55;;;;;;;;;;;;;;;10.51;100.00;100451.78;4891177;29;19946;-78
2023/01/06 07:12:21;;;;;;;;;;;;;;;10.50;100.00;100448.25;4874727;29;19927;-78
2023/01/06 07:14:48;;;;;;;;;;;;;;;10.50;100.00;100447.41;4888964;29;19927;-78
2023/01/06 07:17:15;;;;;;;;;;;;;;;10.48;100.00;100452.88;4906986;29;19923;-79
2023/01/06 07:19:41;;;;;;;;;;;;;;;10.50;100.00;100460.69;4884831;29;19931;-78
2023/01/06 07:22:08;;;;;;;;;;;;;;;10.50;100.00;100452.72;4878245;29;20014;-79
2023/01/06 07:24:34;;;;;;;;;;;;;;;10.49;100.00;100454.53;4916288;29;20276;-78
2023/01/06 07:27:01;;;;;;;;;;;;;;;10.47;100.00;100464.44;4901439;29;19927;-78
2023/01/06 07:29:27;;;;;;;;;;;;;;;10.48;100.00;100458.19;4889163;29;20026;-78
2023/01/06 07:31:54;;;;;;;;;;;;;;;10.46;100.00;100464.53;4885726;29;20379;-78
2023/01/06 07:34:20;;;;;;;;;;;;;;;10.46;100.00;100453.91;4900746;29;20294;-79
2023/01/06 07:36:47;;;;;;;;;;;;;;;10.47;100.00;100460.94;4898817;29;19934;-78
2023/01/06 07:39:13;;;;;;;;;;;;;;;10.44;100.00;100459.38;4915805;29;19927;-79
2023/01/06 07:41:40;;;;;;;;;;;;;;;10.44;100.00;100464.69;4916708;29;19931;-79
2023/01/06 07:44:10;;;;;;;;;;;;;;;10.45;100.00;100463.69;4870577;29;19987;-80
2023/01/06 07:46:36;;;;;;;;;;;;;;;10.44;100.00;100464.69;4875692;29;19931;-78
2023/01/06 07:49:03;;;;;;;;;;;;;;;10.45;100.00;100461.03;4868966;29;19946;-79
2023/01/06 07:51:30;;;;;;;;;;;;;;;10.45;100.00;100462.88;4891615;29;19927;-79
2023/01/06 07:53:56;;;;;;;;;;;;;;;10.45;100.00;100458.41;4889151;29;19930;-79
2023/01/06 07:56:23;;;;;;;;;;;;;;;10.44;100.00;100467.34;4900668;29;20390;-78
2023/01/06 07:58:50;;;;;;;;;;;;;;;10.41;100.00;100472.88;4904756;29;19955;-79
2023/01/06 08:01:16;;;;;;;;;;;;;;;10.43;100.00;100482.44;4903440;29;20363;-78
2023/01/06 08:03:43;;;;;;;;;;;;;;;10.43;100.00;100498.34;4881914;29;19931;-79
2023/01/06 08:06:10;;;;;;;;;;;;;;;10.46;100.00;100496.41;4881985;29;19935;-78
2023/01/06 08:08:37;;;;;;;;;;;;;;;10.43;100.00;100511.63;4873897;29;19923;-78
2023/01/06 08:11:05;;;;;;;;;;;;;;;10.46;100.00;100510.56;4888484;29;20159;-80
2023/01/06 08:13:32;;;;;;;;;;;;;;;10.48;100.00;100505.09;4904206;29;19930;-79
2023/01/06 08:16:02;;;;;;;;;;;;;;;10.49;100.00;100497.03;4888063;29;20389;-79
2023/01/06 08:18:29;;;;;;;;;;;;;;;10.51;100.00;100500.41;4898744;29;20457;-78
2023/01/06 08:21:02;;;;;;;;;;;;;;;10.52;100.00;100494.13;4908089;29;19975;-80
2023/01/06 08:23:29;;;;;;;;;;;;;;;10.52;100.00;100491.47;4890223;29;19923;-78
2023/01/06 08:26:03;;;;;;;;;;;;;;;10.52;100.00;100499.44;4919288;29;19931;-78
2023/01/06 08:28:30;;;;;;;;;;;;;;;10.50;100.00;100498.72;4909248;29;19923;-79
2023/01/06 08:30:56;;;;;;;;;;;;;;;10.52;100.00;100502.09;4906102;29;19938;-78
2023/01/06 08:33:24;;;;;;;;;;;;;;;10.48;100.00;100499.78;4902505;29;19923;-78
2023/01/06 08:35:58;;;;;;;;;;;;;;;10.50;100.00;100505.84;4864842;29;19923;-78
2023/01/06 08:38:25;;;;;;;;;;;;;;;10.48;100.00;100505.09;4914668;29;19933;-79
2023/01/06 08:40:52;;;;;;;;;;;;;;;10.51;100.00;100516.34;4877376;29;19933;-79
2023/01/06 08:43:19;;;;;;;;;;;;;;;10.50;100.00;100513.81;4913684;29;19931;-77
2023/01/06 08:45:45;;;;;;;;;;;;;;;10.51;100.00;100513.69;4923397;29;20315;-77
2023/01/06 08:48:12;;;;;;;;;;;;;;;10.51;100.00;100518.16;4906207;29;19961;-78
2023/01/06 08:50:38;;;;;;;;;;;;;;;10.51;100.00;100528.78;4889646;29;19930;-77
2023/01/06 08:53:05;;;;;;;;;;;;;;;10.51;99.81;100520.81;4892364;29;19923;-77
2023/01/06 08:55:32;;;;;;;;;;;;;;;10.50;99.42;100525.25;4893752;29;19927;-78
2023/01/06 08:57:58;;;;;;;;;;;;;;;10.50;99.40;100530.56;4893602;29;19927;-78
2023/01/06 09:00:25;;;;;;;;;;;;;;;10.52;99.70;100525.16;4909794;29;19922;-77
2023/01/06 09:02:51;;;;;;;;;;;;;;;10.53;99.84;100529.50;4884907;29;19933;-77
2023/01/06 09:05:18;;;;;;;;;;;;;;;10.53;100.00;100533.03;4897085;29;19923;-78
2023/01/06 09:07:44;;;;;;;;;;;;;;;10.53;100.00;100527.72;4917173;29;19927;-77
2023/01/06 09:10:11;;;;;;;;;;;;;;;10.53;100.00;100525.06;4904545;29;19983;-77
2023/01/06 09:12:38;;;;;;;;;;;;;;;10.53;100.00;100538.31;4893574;29;19929;-78
2023/01/06 09:15:05;;;;;;;;;;;;;;;10.55;100.00;100541.69;4915967;29;19951;-77
2023/01/06 09:17:32;;;;;;;;;;;;;;;10.55;100.00;100533.72;4906080;29;19931;-77
2023/01/06 09:20:00;;;;;;;;;;;;;;;10.54;100.00;100537.34;4897544;29;19953;-78
2023/01/06 09:22:26;;;;;;;;;;;;;;;10.56;100.00;100535.44;4893192;29;20248;-78
2023/01/06 09:24:54;;;;;;;;;;;;;;;10.56;100.00;100535.44;4915341;29;19934;-80
2023/01/06 09:27:21;;;;;;;;;;;;;;;10.56;100.00;100539.91;4884806;29;19956;-77
2023/01/06 09:29:49;;;;;;;;;;;;;;;10.54;100.00;100534.69;4896080;29;19927;-78
2023/01/06 09:32:16;;;;;;;;;;;;;;;10.56;100.00;100535.44;4886445;29;20628;-78
2023/01/06 09:34:43;;;;;;;;;;;;;;;10.56;100.00;100535.44;4895958;29;20049;-77
2023/01/06 09:37:09;;;;;;;;;;;;;;;10.58;100.00;100528.19;4908232;29;19967;-77
2023/01/06 09:39:36;;;;;;;;;;;;;;;10.59;100.00;100526.38;4883714;29;20387;-78
2023/01/06 09:42:11;;;;;;;;;;;;;;;10.60;100.00;100528.91;4901627;29;20324;-77
2023/01/06 09:44:43;;;;;;;;;;;;;;;10.62;100.00;100521.66;4862549;29;19962;-78
2023/01/06 09:47:10;;;;;;;;;;;;;;;10.63;100.00;100528.69;4902131;29;19934;-77
2023/01/06 09:49:45;;;;;;;;;;;;;;;10.66;100.00;100524.94;4907648;29;19958;-78
2023/01/06 09:52:23;;;;;;;;;;;;;;;10.69;100.00;100523.84;4890956;29;19931;-79
2023/01/06 09:55:09;;;;;;;;;;;;;;;10.73;100.00;100509.34;4898398;29;19927;-79
2023/01/06 09:57:56;;;;;;;;;;;;;;;10.76;100.00;100509.09;4886568;29;19927;-79
2023/01/06 10:00:27;;;;;;;;;;;;;;;10.79;99.33;100503.56;4881992;29;19927;-79
2023/01/06 10:02:55;;;;;;;;;;;;;;;10.81;98.39;100506.94;4908693;29;19923;-79
2023/01/06 10:05:25;;;;;;;;;;;;;;;10.84;98.14;100507.56;4876352;29;20516;-78
2023/01/06 10:08:01;;;;;;;;;;;;;;;10.82;97.69;100498.84;4885191;29;19923;-77
2023/01/06 10:10:47;;;;;;;;;;;;;;;10.85;97.96;100506.56;4910217;29;20441;-77
2023/01/06 10:13:29;;;;;;;;;;;;;;;10.85;96.86;100508.41;4877674;29;19934;-78
2023/01/06 10:16:00;;;;;;;;;;;;;;;10.82;95.52;100509.47;4888336;29;19951;-79
2023/01/06 10:18:42;;;;;;;;;;;;;;;10.82;95.62;100508.66;4887698;29;19953;-78
2023/01/06 10:21:35;;;;;;;;;;;;;;;10.82;95.40;100513.97;4893626;29;19929;-77
2023/01/06 10:24:06;;;;;;;;;;;;;;;10.84;95.84;100512.88;4844852;29;19931;-78
2023/01/06 10:26:55;;;;;;;;;;;;;;;10.85;96.19;100513.72;4875673;29;19923;-78
2023/01/06 10:29:22;;;;;;;;;;;;;;;10.86;96.18;100510.06;4866574;29;19931;-78
2023/01/06 10:31:49;;;;;;;;;;;;;;;10.88;95.75;100516.13;4884512;29;19934;-77
2023/01/06 10:34:22;;;;;;;;;;;;;;;10.87;95.67;100511.78;4908800;29;19930;-77
2023/01/06 10:37:01;;;;;;;;;;;;;;;10.88;93.86;100512.63;4881827;29;19946;-77
2023/01/06 10:39:28;;;;;;;;;;;;;;;10.89;94.72;100515.16;4856936;29;19927;-78
2023/01/06 10:44:46;;;;;;;;;;;;;;;10.90;94.98;100521.31;4862252;29;19927;-78
2023/01/06 10:47:22;;;;;;;;;;;;;;;10.90;94.80;100519.50;4907902;29;20446;-77
2023/01/06 10:49:51;;;;;;;;;;;;;;;10.90;94.18;100513.34;4857753;29;19922;-78
2023/01/06 10:52:18;;;;;;;;;;;;;;;10.91;93.71;100515.03;4875193;29;20399;-77
2023/01/06 10:54:45;;;;;;;;;;;;;;;10.90;93.39;100510.69;4896646;29;19966;-77
2023/01/06 10:57:23;;;;;;;;;;;;;;;10.88;93.22;100515.28;4882319;29;19934;-77
2023/01/06 11:00:11;;;;;;;;;;;;;;;10.86;93.64;100504.75;4862222;29;20463;-78
2023/01/06 11:02:56;;;;;;;;;;;;;;;10.86;93.07;100507.41;4879723;29;19927;-80
2023/01/06 11:05:40;;;;;;;;;;;;;;;10.85;91.92;100505.75;4857584;29;19927;-78
2023/01/06 11:08:09;;;;;;;;;;;;;;;10.85;90.57;100505.75;4891094;29;19931;-80
2023/01/06 11:10:41;;;;;;;;;;;;;;;10.83;90.12;100505.00;4893973;29;19927;-80
2023/01/06 11:13:19;;;;;;;;;;;;;;;10.83;92.31;100502.34;4891201;29;19937;-80
2023/01/06 11:15:46;;;;;;;;;;;;;;;10.87;93.84;100509.13;4903655;29;19930;-77
2023/01/06 11:18:39;;;;;;;;;;;;;;;10.86;93.01;100502.97;4879203;29;19993;-80
2023/01/06 11:21:10;;;;;;;;;;;;;;;10.89;92.49;100504.53;4875690;29;20305;-79
2023/01/06 11:23:38;;;;;;;;;;;;;;;10.89;91.76;100506.31;4877273;29;20387;-78
2023/01/06 11:26:17;;;;;;;;;;;;;;;10.90;92.03;100508.03;4895082;29;19935;-77
2023/01/06 11:28:57;;;;;;;;;;;;;;;10.89;90.56;100491.25;4837016;29;20399;-77
2023/01/06 11:31:24;;;;;;;;;;;;;;;10.88;88.45;100491.38;4885192;29;19923;-77
2023/01/06 11:33:54;;;;;;;;;;;;;;;10.90;90.04;100490.28;4907764;29;19927;-77
2023/01/06 11:36:27;;;;;;;;;;;;;;;10.92;90.35;100490.16;4907520;29;19938;-77
2023/01/06 11:39:00;;;;;;;;;;;;;;;10.92;89.24;100484.84;4888275;29;19930;-78
2023/01/06 11:41:27;;;;;;;;;;;;;;;10.91;88.66;100491.97;4886715;29;19955;-78
2023/01/06 11:43:54;;;;;;;;;;;;;;;10.92;89.00;100495.47;4899912;29;19926;-79
2023/01/06 11:46:21;;;;;;;;;;;;;;;10.93;89.14;100495.34;4877352;29;19931;-78
2023/01/06 11:48:50;;;;;;;;;;;;;;;10.94;88.77;100485.56;4882972;29;19923;-78
2023/01/06 11:51:30;;;;;;;;;;;;;;;10.92;87.49;100490.16;4890985;29;19927;-77
2023/01/06 11:53:57;;;;;;;;;;;;;;;10.91;87.05;100485.81;4885535;29;19929;-77
2023/01/06 11:56:24;;;;;;;;;;;;;;;10.91;87.75;100491.13;4877162;29;20013;-77
2023/01/06 11:59:03;;;;;;;;;;;;;;;10.93;88.79;100481.22;4874921;29;19955;-78
2023/01/06 12:01:36;;;;;;;;;;;;;;;10.92;87.63;100456.47;4863476;29;19931;-78
2023/01/06 12:04:21;;;;;;;;;;;;;;;10.93;88.21;100458.16;4904395;29;20327;-78
2023/01/06 12:06:48;;;;;;;;;;;;;;;10.94;87.37;100451.88;4899800;29;20413;-78
2023/01/06 12:09:20;;;;;;;;;;;;;;;10.94;87.47;100451.88;4891329;29;19979;-77
2023/01/06 12:11:50;;;;;;;;;;;;;;;10.93;86.27;100442.19;4914366;29;19973;-78
2023/01/06 12:14:18;;;;;;;;;;;;;;;10.94;86.81;100451.88;4904088;29;20282;-80
2023/01/06 12:17:07;;;;;;;;;;;;;;;10.97;87.67;100456.94;4908983;29;19928;-78
2023/01/06 12:19:36;;;;;;;;;;;;;;;10.96;87.38;100447.25;4893512;29;20426;-77
2023/01/06 12:22:03;;;;;;;;;;;;;;;10.94;85.85;100435.06;4905531;29;20394;-78
2023/01/06 12:24:31;;;;;;;;;;;;;;;10.95;86.32;100442.09;4902667;29;19967;-78
2023/01/06 12:27:00;;;;;;;;;;;;;;;10.95;86.77;100439.44;4890776;29;19986;-77
2023/01/06 12:29:26;;;;;;;;;;;;;;;10.92;86.74;100429.06;4901063;29;19927;-78
2023/01/06 12:31:59;;;;;;;;;;;;;;;10.92;86.64;100437.03;4884825;29;19922;-78
2023/01/06 12:34:28;;;;;;;;;;;;;;;10.91;86.54;100446.78;4886063;29;19933;-77
2023/01/06 12:36:55;;;;;;;;;;;;;;;10.92;87.13;100456.47;4919279;29;19933;-77
2023/01/06 12:39:26;;;;;;;;;;;;;;;10.91;86.32;100457.41;4921639;29;19923;-78
2023/01/06 12:41:54;;;;;;;;;;;;;;;10.92;86.74;100458.28;4899242;29;19927;-78
2023/01/06 12:44:20;;;;;;;;;;;;;;;10.91;86.22;100448.59;4908663;29;19942;-81
2023/01/06 12:46:47;;;;;;;;;;;;;;;10.90;84.97;100447.75;4876257;29;20534;-77
2023/01/06 12:49:17;;;;;;;;;;;;;;;10.90;85.55;100450.44;4902641;29;19930;-79